Time;durP1;ratioP1;P1;durP2;ratioP2;P2;SDS_P1;SDS_P2;PMS_P1;PMS_P2;Temp;Humidity;BMP_temperature;BMP_pressure;BME280_temperature;BME280_humidity;BME280_pressure;Samples;Min_cycle;Max_cycle;Signal;HPM_P1;HPM_P2
2023/06/16 00:00:19;;;;;;;1.30;0.90;;;16.00;72.10;;;;;;5080732;28;20028;-78
2023/06/16 00:02:45;;;;;;;1.90;1.48;;;15.90;72.30;;;;;;5082433;28;20044;-77
2023/06/16 00:05:12;;;;;;;1.30;1.20;;;15.90;72.40;;;;;;5080118;28;20020;-77
2023/06/16 00:07:39;;;;;;;1.73;1.17;;;15.80;72.50;;;;;;5082589;28;20070;-76
2023/06/16 00:10:06;;;;;;;1.27;1.17;;;15.80;72.70;;;;;;5077422;28;20044;-77
2023/06/16 00:12:33;;;;;;;1.67;1.17;;;15.80;72.80;;;;;;5079508;28;20080;-76
2023/06/16 00:14:59;;;;;;;1.20;1.08;;;15.70;72.90;;;;;;5079792;28;20416;-78
2023/06/16 00:17:26;;;;;;;1.30;1.10;;;15.70;73.10;;;;;;5082574;28;20039;-77
2023/06/16 00:19:57;;;;;;;1.25;1.15;;;15.70;73.10;;;;;;5082462;28;20028;-77
2023/06/16 00:22:26;;;;;;;1.50;1.40;;;15.70;73.30;;;;;;5062298;28;20166;-77
2023/06/16 00:24:53;;;;;;;1.45;1.23;;;15.70;73.50;;;;;;5062601;28;20032;-76
2023/06/16 00:27:22;;;;;;;1.35;1.25;;;15.70;73.50;;;;;;5077565;28;20099;-77
2023/06/16 00:29:49;;;;;;;1.95;1.25;;;15.60;73.70;;;;;;5078012;28;20475;-77
2023/06/16 00:32:14;;;;;;;1.50;1.27;;;15.60;73.90;;;;;;5059876;28;20385;-77
2023/06/16 00:34:40;;;;;;;0.88;0.85;;;15.60;74.10;;;;;;5040121;28;20116;-77
2023/06/16 00:37:06;;;;;;;1.90;1.35;;;15.60;74.40;;;;;;5057170;28;20021;-77
2023/06/16 00:39:31;;;;;;;2.00;1.00;;;15.60;74.60;;;;;;5056632;28;20108;-77
2023/06/16 00:41:57;;;;;;;1.35;1.23;;;15.60;74.60;;;;;;5058544;28;20452;-76
2023/06/16 00:44:23;;;;;;;1.20;1.05;;;15.50;74.60;;;;;;5056675;28;20091;-78
2023/06/16 00:46:49;;;;;;;1.38;1.10;;;15.50;74.80;;;;;;5058697;28;20100;-78
2023/06/16 00:49:15;;;;;;;1.13;1.02;;;15.50;74.90;;;;;;5073161;28;20031;-76
2023/06/16 00:51:41;;;;;;;1.05;0.95;;;15.40;75.00;;;;;;5057490;28;20029;-77
2023/06/16 00:54:10;;;;;;;0.80;0.80;;;15.50;75.60;;;;;;5067458;28;20036;-78
2023/06/16 00:56:38;;;;;;;1.05;0.95;;;15.40;75.90;;;;;;5076768;28;20140;-78
2023/06/16 00:59:05;;;;;;;1.00;1.00;;;15.40;75.90;;;;;;5078442;28;20032;-78
2023/06/16 01:01:31;;;;;;;0.95;0.82;;;15.30;76.00;;;;;;5074510;28;20051;-77
2023/06/16 01:03:57;;;;;;;1.10;1.05;;;15.30;76.50;;;;;;5057799;28;20028;-76
2023/06/16 01:06:32;;;;;;;1.30;1.20;;;15.30;77.40;;;;;;5079768;28;21983;-77
2023/06/16 01:09:25;;;;;;;1.30;1.20;;;15.20;78.20;;;;;;5091109;28;20100;-77
2023/06/16 01:12:15;;;;;;;1.30;1.05;;;15.20;78.90;;;;;;5080230;28;20032;-76
2023/06/16 01:14:59;;;;;;;1.00;1.00;;;15.20;79.40;;;;;;5060561;28;20028;-78
2023/06/16 01:17:28;;;;;;;1.00;1.00;;;15.20;79.80;;;;;;5076099;28;20469;-78
2023/06/16 01:20:08;;;;;;;1.17;1.10;;;15.10;80.10;;;;;;5086189;28;20095;-77
2023/06/16 01:22:46;;;;;;;0.90;0.90;;;15.10;80.50;;;;;;5070572;28;20115;-76
2023/06/16 01:25:14;;;;;;;1.08;1.00;;;15.10;80.80;;;;;;5053395;28;20032;-76
2023/06/16 01:27:47;;;;;;;1.45;1.35;;;15.00;80.90;;;;;;5076509;28;20136;-77
2023/06/16 01:30:15;;;;;;;1.30;1.20;;;15.00;81.30;;;;;;5077029;28;20067;-76
2023/06/16 01:32:46;;;;;;;1.52;1.42;;;15.00;81.60;;;;;;5080437;28;20028;-76
2023/06/16 01:35:12;;;;;;;1.63;1.50;;;15.00;81.60;;;;;;5095583;28;20221;-78
2023/06/16 01:37:40;;;;;;;1.20;1.10;;;15.00;81.80;;;;;;5064443;28;20036;-79
2023/06/16 01:40:07;;;;;;;1.27;1.17;;;14.90;81.90;;;;;;5058216;28;20021;-77
2023/06/16 01:42:34;;;;;;;1.27;1.17;;;14.90;81.80;;;;;;5061183;28;20025;-77
2023/06/16 01:45:01;;;;;;;1.15;1.10;;;14.90;81.60;;;;;;5089881;28;20039;-76
2023/06/16 01:47:27;;;;;;;1.05;1.05;;;14.90;81.40;;;;;;5094726;28;20061;-76
2023/06/16 01:49:53;;;;;;;1.50;1.40;;;14.90;81.30;;;;;;5106520;28;20036;-75
2023/06/16 01:52:20;;;;;;;1.60;1.38;;;14.90;81.10;;;;;;5117670;28;20088;-76
2023/06/16 01:54:46;;;;;;;1.30;1.20;;;14.90;81.00;;;;;;5083824;28;20024;-76
2023/06/16 01:57:12;;;;;;;1.30;1.20;;;14.80;80.90;;;;;;5093476;28;20080;-76
2023/06/16 01:59:37;;;;;;;1.52;1.40;;;14.80;81.10;;;;;;5084013;28;20039;-78
2023/06/16 02:02:09;;;;;;;1.40;1.30;;;14.80;81.30;;;;;;5077288;28;20374;-77
2023/06/16 02:04:39;;;;;;;1.67;1.58;;;14.80;81.30;;;;;;5075972;28;20029;-77
2023/06/16 02:07:09;;;;;;;1.50;1.40;;;14.70;81.20;;;;;;5064095;28;20059;-77
2023/06/16 02:09:36;;;;;;;1.83;1.73;;;14.70;81.20;;;;;;5056909;28;20029;-77
2023/06/16 02:12:03;;;;;;;2.00;1.80;;;14.70;81.30;;;;;;5055138;28;20025;-77
2023/06/16 02:14:30;;;;;;;2.00;1.80;;;14.70;81.50;;;;;;5055507;28;20021;-76
2023/06/16 02:16:56;;;;;;;1.67;1.55;;;14.60;81.70;;;;;;5057696;28;20025;-76
2023/06/16 02:19:22;;;;;;;1.73;1.60;;;14.70;82.10;;;;;;5076626;28;20024;-77
2023/06/16 02:21:47;;;;;;;2.03;1.85;;;14.70;82.30;;;;;;5080300;28;20154;-77
2023/06/16 02:24:13;;;;;;;1.50;1.40;;;14.70;82.20;;;;;;5076488;28;20077;-77
2023/06/16 02:26:39;;;;;;;1.85;1.75;;;14.60;82.40;;;;;;5057965;28;20472;-78
2023/06/16 02:29:05;;;;;;;1.50;1.40;;;14.60;82.70;;;;;;5056542;28;20104;-76
2023/06/16 02:31:31;;;;;;;1.70;1.60;;;14.60;82.90;;;;;;5062082;28;20021;-77
2023/06/16 02:33:57;;;;;;;1.50;1.40;;;14.60;83.00;;;;;;5056486;28;20399;-76
2023/06/16 02:36:23;;;;;;;1.80;1.70;;;14.60;82.90;;;;;;5071889;28;20024;-77
2023/06/16 02:38:49;;;;;;;2.20;1.98;;;14.60;82.90;;;;;;5058900;28;20024;-76
2023/06/16 02:41:15;;;;;;;2.55;2.30;;;14.60;82.90;;;;;;5077849;28;20021;-77
2023/06/16 02:43:41;;;;;;;2.95;2.45;;;14.60;82.90;;;;;;5073576;28;20035;-77
2023/06/16 02:46:07;;;;;;;2.83;2.08;;;14.50;82.80;;;;;;5072598;28;20020;-77
2023/06/16 02:48:34;;;;;;;3.33;2.03;;;14.50;82.60;;;;;;5049212;28;20032;-76
2023/06/16 02:50:59;;;;;;;2.35;2.15;;;14.50;82.40;;;;;;5085945;28;20074;-78
2023/06/16 02:53:25;;;;;;;2.78;2.40;;;14.50;81.80;;;;;;5076367;28;20020;-79
2023/06/16 02:55:55;;;;;;;2.55;2.15;;;14.50;81.50;;;;;;5089030;28;20024;-77
2023/06/16 02:58:21;;;;;;;2.30;2.10;;;14.60;81.50;;;;;;5073004;28;20020;-77
2023/06/16 03:00:47;;;;;;;2.47;2.28;;;14.60;81.40;;;;;;5074016;28;20099;-78
2023/06/16 03:03:13;;;;;;;1.70;1.60;;;14.60;81.40;;;;;;5073463;28;20525;-76
2023/06/16 03:05:38;;;;;;;1.85;1.75;;;14.60;81.30;;;;;;5053698;28;20028;-77
2023/06/16 03:08:04;;;;;;;1.83;1.73;;;14.70;81.40;;;;;;5074734;28;20044;-77
2023/06/16 03:10:30;;;;;;;1.70;1.60;;;14.70;81.90;;;;;;5056299;28;20029;-77
2023/06/16 03:12:56;;;;;;;1.42;1.33;;;14.80;81.00;;;;;;5076527;28;20140;-77
2023/06/16 03:15:23;;;;;;;1.70;1.60;;;14.90;80.90;;;;;;5074609;28;20025;-77
2023/06/16 03:17:49;;;;;;;1.60;1.50;;;14.90;80.60;;;;;;5079700;28;20065;-78
2023/06/16 03:20:15;;;;;;;1.80;1.70;;;15.00;80.40;;;;;;5078469;28;20482;-77
2023/06/16 03:22:41;;;;;;;2.03;1.90;;;15.00;80.10;;;;;;5082051;28;20104;-78
2023/06/16 03:25:07;;;;;;;1.60;1.50;;;15.00;79.70;;;;;;5080086;28;20111;-79
2023/06/16 03:27:33;;;;;;;2.20;2.00;;;15.10;79.40;;;;;;5066902;28;20105;-79
2023/06/16 03:29:58;;;;;;;1.65;1.55;;;15.00;79.20;;;;;;5057309;28;20506;-80
2023/06/16 03:32:25;;;;;;;1.52;1.42;;;15.00;79.10;;;;;;5058387;28;20028;-78
2023/06/16 03:34:50;;;;;;;1.73;1.63;;;15.00;79.00;;;;;;5057088;28;20032;-78
2023/06/16 03:37:17;;;;;;;1.70;1.60;;;15.00;79.10;;;;;;5064259;28;20445;-78
2023/06/16 03:39:42;;;;;;;1.70;1.60;;;14.90;79.50;;;;;;5069380;28;20029;-79
2023/06/16 03:42:08;;;;;;;2.00;1.90;;;14.90;78.90;;;;;;5060455;28;20050;-78
2023/06/16 03:44:34;;;;;;;1.73;1.63;;;14.90;78.90;;;;;;5075536;28;20078;-79
2023/06/16 03:47:00;;;;;;;1.83;1.73;;;14.90;79.00;;;;;;5075182;28;20457;-79
2023/06/16 03:49:26;;;;;;;1.60;1.50;;;14.90;79.00;;;;;;5072476;28;20043;-77
2023/06/16 03:51:52;;;;;;;1.98;1.88;;;14.90;79.10;;;;;;5084598;28;20035;-78
2023/06/16 03:54:19;;;;;;;2.35;2.10;;;14.90;79.00;;;;;;5076366;28;20024;-77
2023/06/16 03:56:45;;;;;;;3.30;3.00;;;14.90;78.80;;;;;;5094688;28;20035;-79
2023/06/16 03:59:11;;;;;;;3.83;3.05;;;14.90;78.70;;;;;;5062727;28;20508;-78
2023/06/16 04:01:38;;;;;;;2.90;2.63;;;14.90;78.50;;;;;;5040859;28;20033;-78
2023/06/16 04:04:06;;;;;;;4.78;3.17;;;14.90;78.40;;;;;;5058030;28;20547;-78
2023/06/16 04:06:36;;;;;;;4.00;3.58;;;15.00;78.60;;;;;;5059346;28;20029;-78
2023/06/16 04:09:02;;;;;;;4.68;3.90;;;15.00;79.10;;;;;;5058401;28;20025;-77
2023/06/16 04:11:29;;;;;;;3.45;3.15;;;15.00;79.30;;;;;;5040458;28;20045;-77
2023/06/16 04:13:54;;;;;;;3.92;3.33;;;15.00;79.70;;;;;;5057853;28;20021;-77
2023/06/16 04:16:20;;;;;;;3.80;2.70;;;15.00;80.10;;;;;;5058423;28;20381;-78
2023/06/16 04:18:48;;;;;;;3.90;3.05;;;15.00;80.40;;;;;;5062305;28;20021;-77
2023/06/16 04:21:17;;;;;;;3.22;2.90;;;15.00;80.50;;;;;;5094258;28;20422;-79
2023/06/16 04:23:43;;;;;;;2.78;2.58;;;15.10;80.60;;;;;;5078095;28;20110;-77
2023/06/16 04:26:08;;;;;;;3.72;3.17;;;15.10;80.60;;;;;;5078505;28;20029;-79
2023/06/16 04:28:44;;;;;;;4.43;3.42;;;15.20;81.20;;;;;;5076304;28;20082;-78
2023/06/16 04:31:11;;;;;;;2.80;2.60;;;15.30;81.40;;;;;;5078360;28;20016;-77
2023/06/16 04:33:41;;;;;;;5.00;3.53;;;;;;;;;;5080630;28;20452;-78
2023/06/16 04:36:07;;;;;;;3.15;2.85;;;15.60;80.50;;;;;;5079400;28;20021;-78
2023/06/16 04:38:33;;;;;;;4.97;3.90;;;15.80;81.00;;;;;;5080236;28;20077;-78
2023/06/16 04:40:59;;;;;;;5.70;4.30;;;16.00;80.30;;;;;;5059735;28;20156;-79
2023/06/16 04:43:24;;;;;;;4.30;3.85;;;16.10;79.60;;;;;;5059544;28;20071;-78
2023/06/16 04:45:50;;;;;;;4.47;4.05;;;16.30;79.20;;;;;;5061098;28;20128;-79
2023/06/16 04:48:16;;;;;;;3.88;3.58;;;16.50;78.80;;;;;;5063311;28;20047;-79
2023/06/16 04:50:42;;;;;;;4.82;3.67;;;16.60;77.90;;;;;;5087626;28;20046;-79
2023/06/16 04:53:08;;;;;;;3.67;3.13;;;16.70;77.10;;;;;;5101450;28;20385;-79
2023/06/16 04:55:33;;;;;;;4.13;3.35;;;16.80;77.10;;;;;;5078263;28;20019;-78
2023/06/16 04:57:59;;;;;;;3.53;3.10;;;16.90;76.30;;;;;;5079659;28;20056;-78
2023/06/16 05:00:27;;;;;;;3.40;3.10;;;17.00;76.30;;;;;;5083102;28;20032;-78
2023/06/16 05:02:53;;;;;;;4.47;2.55;;;17.20;75.60;;;;;;5080181;28;20020;-79
2023/06/16 05:05:20;;;;;;;3.85;3.25;;;17.40;74.40;;;;;;5069934;28;20504;-74
2023/06/16 05:07:45;;;;;;;2.92;2.53;;;17.60;74.30;;;;;;5071501;28;20141;-81
2023/06/16 05:10:11;;;;;;;2.30;2.10;;;18.80;73.50;;;;;;5054388;28;20136;-77
2023/06/16 05:12:37;;;;;;;2.20;2.10;;;20.70;69.00;;;;;;5054838;28;20110;-77
2023/06/16 05:15:03;;;;;;;1.90;1.80;;;22.60;63.30;;;;;;5084732;28;20024;-77
2023/06/16 05:17:29;;;;;;;1.92;1.75;;;;;;;;;;5062783;28;20084;-77
2023/06/16 05:19:55;;;;;;;2.30;2.10;;;;;;;;;;5088320;28;20373;-77
2023/06/16 05:22:23;;;;;;;2.38;2.17;;;;;;;;;;5067047;28;20031;-76
2023/06/16 05:24:57;;;;;;;2.63;2.42;;;;;;;;;;5085026;28;20045;-77
2023/06/16 05:27:24;;;;;;;1.80;1.70;;;;;;;;;;5080584;28;20074;-77
2023/06/16 05:29:53;;;;;;;2.13;2.03;;;;;;;;;;5082957;28;20220;-78
2023/06/16 05:32:21;;;;;;;2.00;1.90;;;;;;;;;;5082516;28;20047;-77
2023/06/16 05:34:51;;;;;;;2.30;2.10;;;27.60;45.70;;;;;;5078018;28;20046;-77
2023/06/16 05:37:18;;;;;;;1.92;1.83;;;27.40;46.10;;;;;;5093469;28;20044;-76
2023/06/16 05:39:45;;;;;;;1.77;1.67;;;26.30;47.20;;;;;;5100466;28;20016;-76
2023/06/16 05:42:15;;;;;;;1.90;1.80;;;25.90;48.20;;;;;;5117774;28;20019;-77
2023/06/16 05:44:44;;;;;;;1.60;1.50;;;25.00;49.50;;;;;;5117720;28;20016;-76
2023/06/16 05:47:11;;;;;;;1.55;1.45;;;24.20;51.50;;;;;;5088464;28;20039;-75
2023/06/16 05:49:37;;;;;;;1.70;1.60;;;24.50;53.00;;;;;;5086549;28;20061;-77
2023/06/16 05:52:05;;;;;;;1.42;1.42;;;;;;;;;;5052508;28;20044;-79
2023/06/16 05:54:31;;;;;;;1.40;1.30;;;27.10;48.40;;;;;;5071918;28;20024;-77
2023/06/16 05:56:58;;;;;;;1.95;1.75;;;28.10;46.50;;;;;;5056348;28;20131;-77
2023/06/16 05:59:25;;;;;;;1.60;1.50;;;28.80;45.30;;;;;;5075711;28;20025;-78
2023/06/16 06:01:51;;;;;;;1.85;1.75;;;29.40;44.50;;;;;;5075972;28;20109;-78
2023/06/16 06:04:21;;;;;;;2.03;1.92;;;29.30;43.60;;;;;;5062660;28;20450;-77
2023/06/16 06:06:46;;;;;;;1.95;1.80;;;29.20;43.70;;;;;;5067048;28;20036;-78
2023/06/16 06:09:12;;;;;;;1.73;1.63;;;29.40;43.70;;;;;;5089500;28;20032;-79
2023/06/16 06:11:39;;;;;;;2.15;2.03;;;29.90;43.30;;;;;;5074967;28;20051;-76
2023/06/16 06:14:05;;;;;;;2.03;1.92;;;30.20;42.10;;;;;;5074727;28;20025;-77
2023/06/16 06:16:31;;;;;;;1.70;1.60;;;30.40;42.20;;;;;;5078443;28;21507;-77
2023/06/16 06:18:56;;;;;;;2.00;1.90;;;30.80;41.70;;;;;;5066061;28;20017;-79
2023/06/16 06:21:22;;;;;;;1.38;1.38;;;31.10;41.20;;;;;;5069575;28;20051;-78
2023/06/16 06:23:48;;;;;;;1.60;1.50;;;31.00;40.80;;;;;;5044054;28;20067;-78
2023/06/16 06:26:13;;;;;;;1.77;1.67;;;30.90;40.40;;;;;;5059030;28;20084;-77
2023/06/16 06:28:39;;;;;;;2.78;2.58;;;30.90;40.70;;;;;;5044637;28;20044;-78
2023/06/16 06:31:05;;;;;;;4.53;3.15;;;30.90;39.90;;;;;;5060652;28;20055;-77
2023/06/16 06:33:31;;;;;;;6.63;3.80;;;30.70;40.00;;;;;;5065271;28;20094;-78
2023/06/16 06:35:57;;;;;;;5.43;3.72;;;30.40;39.80;;;;;;5089213;28;20078;-77
2023/06/16 06:38:22;;;;;;;6.25;3.83;;;29.50;40.50;;;;;;5077060;28;20040;-77
2023/06/16 06:41:00;;;;;;;4.18;3.78;;;28.30;42.20;;;;;;5062740;28;20055;-79
2023/06/16 06:43:26;;;;;;;3.72;3.13;;;28.10;43.10;;;;;;5068603;28;20139;-77
2023/06/16 06:45:52;;;;;;;4.75;3.53;;;28.00;43.30;;;;;;5068239;28;20025;-77
2023/06/16 06:48:17;;;;;;;4.88;3.17;;;27.90;43.70;;;;;;5045778;28;20025;-78
2023/06/16 06:50:43;;;;;;;3.35;3.10;;;27.90;43.60;;;;;;5065100;28;20037;-77
2023/06/16 06:53:09;;;;;;;4.82;3.58;;;28.20;43.60;;;;;;5074357;28;20020;-76
2023/06/16 06:55:35;;;;;;;3.53;3.22;;;28.60;42.90;;;;;;5067564;28;20144;-79
2023/06/16 06:58:01;;;;;;;4.18;2.90;;;;;;;;;;5065820;28;20040;-78
2023/06/16 07:00:27;;;;;;;2.97;2.78;;;29.00;42.50;;;;;;5063992;28;20067;-78
2023/06/16 07:02:52;;;;;;;2.67;2.47;;;29.40;42.70;;;;;;5038500;28;20025;-79
2023/06/16 07:05:18;;;;;;;2.20;2.10;;;30.00;42.90;;;;;;5075740;28;20396;-78
2023/06/16 07:07:44;;;;;;;3.55;2.58;;;30.50;41.60;;;;;;5073721;28;20220;-77
2023/06/16 07:10:10;;;;;;;3.33;3.03;;;30.90;40.70;;;;;;5068209;28;20025;-79
2023/06/16 07:12:36;;;;;;;3.40;3.10;;;30.80;40.00;;;;;;5062871;28;20043;-78
2023/06/16 07:15:02;;;;;;;2.80;2.60;;;30.70;40.00;;;;;;5061322;28;20040;-77
2023/06/16 07:17:30;;;;;;;2.80;2.60;;;30.70;40.70;;;;;;5059510;28;20029;-79
2023/06/16 07:19:55;;;;;;;3.80;3.40;;;30.70;40.30;;;;;;5043896;28;20025;-81
2023/06/16 07:22:21;;;;;;;3.50;3.20;;;29.60;39.90;;;;;;5077203;28;20021;-78
2023/06/16 07:24:47;;;;;;;3.90;3.50;;;27.60;42.30;;;;;;5076407;28;20028;-78
2023/06/16 07:27:13;;;;;;;3.67;3.22;;;25.80;44.60;;;;;;5066942;28;20040;-78
2023/06/16 07:29:38;;;;;;;3.85;3.13;;;24.30;47.00;;;;;;5056102;28;20053;-77
2023/06/16 07:32:05;;;;;;;4.28;2.90;;;23.30;49.50;;;;;;5063575;28;20025;-78
2023/06/16 07:34:31;;;;;;;3.90;2.75;;;22.70;51.00;;;;;;5092507;28;20024;-78
2023/06/16 07:36:57;;;;;;;5.20;3.22;;;22.40;52.00;;;;;;5100780;28;20059;-77
2023/06/16 07:39:24;;;;;;;3.58;3.28;;;22.20;52.30;;;;;;5075027;28;20048;-77
2023/06/16 07:41:49;;;;;;;5.80;3.55;;;21.90;52.60;;;;;;5082943;28;20052;-78
2023/06/16 07:44:17;;;;;;;4.28;3.50;;;21.70;53.30;;;;;;5076331;28;20446;-79
2023/06/16 07:46:45;;;;;;;4.93;3.13;;;21.60;54.00;;;;;;5049777;28;20037;-77
2023/06/16 07:49:13;;;;;;;3.58;3.25;;;21.50;54.00;;;;;;5080761;28;20028;-79
2023/06/16 07:51:39;;;;;;;4.35;3.63;;;21.60;54.70;;;;;;5064373;28;20053;-78
2023/06/16 07:54:05;;;;;;;4.50;3.53;;;21.50;54.20;;;;;;5061188;28;20044;-77
2023/06/16 07:56:31;;;;;;;5.55;3.45;;;21.50;54.10;;;;;;5062821;28;20025;-79
2023/06/16 07:58:57;;;;;;;4.13;3.63;;;21.50;53.70;;;;;;5061220;28;20071;-77
2023/06/16 08:01:26;;;;;;;4.47;3.42;;;21.60;53.50;;;;;;5083924;28;20025;-77
2023/06/16 08:03:52;;;;;;;5.85;3.30;;;21.70;53.40;;;;;;5083763;28;20039;-80
2023/06/16 08:06:18;;;;;;;4.53;2.85;;;21.80;53.60;;;;;;5083087;28;20485;-80
2023/06/16 08:08:43;;;;;;;2.80;2.60;;;21.90;53.50;;;;;;5081229;28;20085;-77
2023/06/16 08:11:09;;;;;;;3.58;2.95;;;22.10;52.80;;;;;;5087822;28;20031;-77
2023/06/16 08:13:35;;;;;;;5.82;3.45;;;22.10;52.80;;;;;;5081016;28;20461;-77
2023/06/16 08:16:01;;;;;;;3.75;3.45;;;22.20;52.40;;;;;;5085927;28;20126;-79
2023/06/16 08:18:27;;;;;;;4.20;3.80;;;22.20;51.80;;;;;;5074830;28;20025;-77
2023/06/16 08:20:53;;;;;;;3.63;3.33;;;22.20;51.50;;;;;;5069463;28;20063;-77
2023/06/16 08:23:18;;;;;;;3.83;3.50;;;22.10;51.70;;;;;;5064592;28;20017;-77
2023/06/16 08:25:45;;;;;;;4.47;3.08;;;22.20;51.70;;;;;;5066798;28;20045;-77
2023/06/16 08:28:11;;;;;;;3.10;2.90;;;22.30;51.60;;;;;;5062731;28;20067;-77
2023/06/16 08:30:37;;;;;;;3.40;3.10;;;22.40;51.20;;;;;;5072403;28;20032;-79
2023/06/16 08:33:04;;;;;;;3.55;2.83;;;22.40;51.10;;;;;;5084944;28;20415;-77
2023/06/16 08:35:30;;;;;;;3.70;3.15;;;22.70;50.90;;;;;;5079929;28;20568;-77
2023/06/16 08:37:56;;;;;;;4.78;3.25;;;22.80;50.00;;;;;;5087882;28;20056;-77
2023/06/16 08:40:21;;;;;;;4.82;3.00;;;23.00;49.30;;;;;;5054259;28;20024;-76
2023/06/16 08:42:48;;;;;;;3.70;3.40;;;23.00;49.40;;;;;;5083422;28;20025;-77
2023/06/16 08:45:14;;;;;;;7.22;2.95;;;23.20;49.00;;;;;;5081033;28;20036;-77
2023/06/16 08:47:42;;;;;;;6.28;3.30;;;23.40;48.80;;;;;;5087999;28;20492;-78
2023/06/16 08:50:09;;;;;;;3.42;2.92;;;23.50;48.60;;;;;;5081716;28;20029;-79
2023/06/16 08:52:40;;;;;;;3.05;2.80;;;23.60;49.10;;;;;;5066848;28;20056;-77
2023/06/16 08:55:15;;;;;;;3.50;3.20;;;23.90;48.80;;;;;;5063578;28;20463;-79
2023/06/16 08:57:44;;;;;;;3.83;3.13;;;;;;;;;;5061580;28;20100;-77
2023/06/16 09:00:10;;;;;;;3.08;2.78;;;23.80;47.50;;;;;;5064465;28;20025;-78
2023/06/16 09:02:36;;;;;;;3.80;3.50;;;23.70;48.30;;;;;;5045396;28;20048;-79
2023/06/16 09:05:06;;;;;;;3.42;3.13;;;23.40;48.20;;;;;;5083638;28;20111;-79
2023/06/16 09:07:32;;;;;;;5.93;3.35;;;23.20;48.60;;;;;;5065565;28;20028;-77
2023/06/16 09:09:58;;;;;;;7.22;3.72;;;23.00;48.80;;;;;;5066935;28;20048;-79
2023/06/16 09:12:24;;;;;;;4.63;3.22;;;23.10;48.80;;;;;;5077593;28;20100;-77
2023/06/16 09:14:50;;;;;;;4.32;3.42;;;23.40;48.00;;;;;;5067520;28;20024;-76
2023/06/16 09:17:27;;;;;;;4.05;3.17;;;23.60;47.50;;;;;;5087924;28;20456;-77
2023/06/16 09:19:53;;;;;;;4.45;2.72;;;24.00;47.10;;;;;;5080938;28;20123;-78
2023/06/16 09:22:23;;;;;;;7.22;3.17;;;24.50;45.90;;;;;;5079763;28;20033;-77
2023/06/16 09:24:59;;;;;;;6.57;3.20;;;24.90;44.20;;;;;;5065044;28;20029;-79
2023/06/16 09:27:44;;;;;;;3.63;3.15;;;25.10;44.20;;;;;;5064625;28;20020;-78
2023/06/16 09:30:13;;;;;;;3.78;3.25;;;25.20;44.00;;;;;;5070353;28;20103;-77
2023/06/16 09:32:39;;;;;;;4.13;2.97;;;24.90;44.30;;;;;;5073075;28;20032;-77
2023/06/16 09:35:22;;;;;;;5.63;3.50;;;24.60;45.10;;;;;;5086366;28;20052;-78
2023/06/16 09:37:53;;;;;;;10.65;3.33;;;24.10;45.20;;;;;;5078755;28;20048;-78
2023/06/16 09:40:24;;;;;;;3.70;3.00;;;23.80;45.60;;;;;;5062679;28;20099;-79
2023/06/16 09:42:50;;;;;;;4.43;3.42;;;23.60;46.30;;;;;;5063796;28;20127;-78
2023/06/16 09:45:17;;;;;;;3.42;3.13;;;23.60;46.40;;;;;;5062639;28;20032;-79
2023/06/16 09:47:47;;;;;;;3.35;3.05;;;23.80;46.50;;;;;;5059963;28;20029;-78
2023/06/16 09:50:17;;;;;;;5.65;3.28;;;24.30;45.70;;;;;;5061758;28;20077;-78
2023/06/16 09:52:44;;;;;;;4.95;3.38;;;24.60;45.10;;;;;;5079136;28;20074;-78
2023/06/16 09:55:11;;;;;;;3.97;3.58;;;24.50;45.30;;;;;;5064147;28;20031;-77
2023/06/16 09:57:39;;;;;;;3.83;3.45;;;24.30;45.80;;;;;;5070881;28;20124;-77
2023/06/16 10:00:15;;;;;;;8.70;3.42;;;24.10;46.10;;;;;;5077308;28;20031;-77
2023/06/16 10:02:48;;;;;;;4.75;3.72;;;23.90;46.50;;;;;;5081157;28;20024;-79
2023/06/16 10:05:18;;;;;;;4.72;3.38;;;23.80;47.10;;;;;;5086667;28;20021;-77
2023/06/16 10:07:50;;;;;;;3.90;3.50;;;23.80;46.30;;;;;;5096751;28;20499;-78
2023/06/16 10:10:21;;;;;;;6.47;3.97;;;23.60;46.70;;;;;;5063250;28;20116;-77
2023/06/16 10:12:49;;;;;;;4.88;3.00;;;23.40;46.80;;;;;;5064759;28;20017;-76
2023/06/16 10:15:24;;;;;;;4.93;3.28;;;23.30;47.10;;;;;;5077116;28;20009;-74
2023/06/16 10:17:51;;;;;;;4.75;4.25;;;23.10;48.10;;;;;;5077247;28;20046;-77
2023/06/16 10:20:18;;;;;;;6.82;3.55;;;23.00;48.40;;;;;;5088446;28;20043;-74
2023/06/16 10:22:45;;;;;;;6.10;3.78;;;22.80;49.00;;;;;;5097189;28;20023;-77
2023/06/16 10:25:11;;;;;;;5.13;3.03;;;22.80;48.90;;;;;;5090332;28;20050;-76
2023/06/16 10:27:39;;;;;;;3.58;3.13;;;;;;;;;;5054016;28;20373;-78
2023/06/16 10:30:09;;;;;;;4.47;3.40;;;23.00;47.60;;;;;;5057601;28;20572;-78
2023/06/16 10:32:35;;;;;;;3.45;3.15;;;23.30;47.10;;;;;;5057644;28;20021;-77
2023/06/16 10:35:01;;;;;;;4.32;3.65;;;23.70;46.80;;;;;;5080799;28;20020;-77
2023/06/16 10:37:28;;;;;;;3.28;2.97;;;24.10;45.10;;;;;;5082380;28;20028;-76
2023/06/16 10:40:03;;;;;;;3.65;3.15;;;24.30;44.50;;;;;;5059805;28;20029;-78
2023/06/16 10:42:35;;;;;;;3.47;3.20;;;24.70;44.00;;;;;;5058126;28;20029;-78
2023/06/16 10:45:26;;;;;;;9.38;4.00;;;25.10;43.50;;;;;;5062021;28;20373;-78
2023/06/16 10:48:11;;;;;;;5.72;3.50;;;25.20;41.80;;;;;;5065503;28;20032;-78
2023/06/16 10:50:43;;;;;;;3.97;3.15;;;24.90;42.50;;;;;;5077918;28;20021;-77
2023/06/16 10:53:16;;;;;;;4.95;3.53;;;25.20;42.40;;;;;;5076586;28;20032;-78
2023/06/16 10:55:45;;;;;;;3.03;2.83;;;25.50;42.20;;;;;;5075762;28;20036;-78
2023/06/16 10:58:16;;;;;;;3.33;3.03;;;25.80;41.50;;;;;;5083291;28;20020;-78
2023/06/16 11:00:59;;;;;;;4.90;3.60;;;25.90;41.40;;;;;;5070946;28;20040;-78
2023/06/16 11:03:34;;;;;;;4.53;3.80;;;25.60;40.30;;;;;;5069153;28;20025;-78
2023/06/16 11:06:01;;;;;;;9.70;3.92;;;25.50;40.00;;;;;;5082622;28;20035;-77
2023/06/16 11:08:28;;;;;;;4.60;3.03;;;25.40;39.40;;;;;;5073792;28;20043;-77
2023/06/16 11:11:03;;;;;;;4.32;3.47;;;25.40;40.00;;;;;;5079096;28;20044;-77
2023/06/16 11:13:40;;;;;;;6.47;3.47;;;;;;;;;;5078781;28;20016;-77
2023/06/16 11:16:07;;;;;;;6.32;3.88;;;25.00;39.30;;;;;;5081759;28;20509;-77
2023/06/16 11:18:36;;;;;;;6.28;3.20;;;24.60;40.10;;;;;;5068180;28;20033;-77
2023/06/16 11:21:04;;;;;;;6.18;3.47;;;24.30;40.70;;;;;;5065513;28;20039;-78
2023/06/16 11:23:31;;;;;;;4.18;2.97;;;24.10;41.20;;;;;;5075525;28;20096;-78
2023/06/16 11:26:18;;;;;;;8.05;4.03;;;23.90;41.30;;;;;;5059574;28;20040;-76
2023/06/16 11:28:44;;;;;;;7.78;3.92;;;24.20;40.60;;;;;;5077922;28;20020;-78
2023/06/16 11:31:12;;;;;;;3.42;3.10;;;24.60;39.30;;;;;;5062986;28;20043;-77
2023/06/16 11:33:39;;;;;;;6.88;3.70;;;24.90;38.20;;;;;;5062821;28;20021;-76
2023/06/16 11:36:24;;;;;;;4.15;3.58;;;25.20;38.20;;;;;;5081771;28;20045;-78
2023/06/16 11:38:52;;;;;;;4.10;3.30;;;25.40;38.50;;;;;;5082045;28;20439;-80
2023/06/16 11:41:18;;;;;;;4.10;3.42;;;25.50;38.60;;;;;;5066594;28;20020;-77
2023/06/16 11:43:44;;;;;;;4.07;3.70;;;;;;;;;;5064486;28;20045;-78
2023/06/16 11:46:11;;;;;;;8.63;3.90;;;25.60;38.10;;;;;;5062277;28;20025;-79
2023/06/16 11:48:38;;;;;;;8.35;3.42;;;25.40;39.20;;;;;;5060497;28;20029;-78
2023/06/16 11:51:05;;;;;;;4.57;3.80;;;25.10;40.00;;;;;;5048522;28;20120;-77
2023/06/16 11:53:31;;;;;;;3.45;3.15;;;25.20;39.70;;;;;;5059845;28;20422;-78
2023/06/16 11:55:59;;;;;;;7.70;3.70;;;25.70;39.70;;;;;;5067634;28;20385;-77
2023/06/16 11:58:27;;;;;;;4.95;3.38;;;26.10;38.80;;;;;;5070087;28;20121;-79
2023/06/16 12:01:00;;;;;;;4.38;3.40;;;26.60;38.70;;;;;;5058019;28;20028;-79
2023/06/16 12:03:31;;;;;;;4.85;3.15;;;27.00;37.90;;;;;;5078808;28;20033;-78
2023/06/16 12:05:58;;;;;;;4.40;3.58;;;27.30;37.20;;;;;;5081592;28;20024;-78
2023/06/16 12:08:42;;;;;;;5.60;4.07;;;27.30;37.20;;;;;;5063564;28;20029;-79
2023/06/16 12:11:16;;;;;;;4.95;3.50;;;;;;;;;;5075285;28;20029;-79
2023/06/16 12:13:42;;;;;;;6.10;3.30;;;27.10;36.70;;;;;;5078247;28;20087;-77
2023/06/16 12:16:11;;;;;;;4.90;3.92;;;27.10;37.50;;;;;;5071433;28;20017;-78
2023/06/16 12:18:36;;;;;;;4.50;3.55;;;27.00;37.30;;;;;;5058968;28;20033;-79
2023/06/16 12:21:23;;;;;;;3.30;3.00;;;26.80;37.90;;;;;;5062800;28;20021;-75
2023/06/16 12:24:00;;;;;;;7.05;3.85;;;27.00;38.30;;;;;;5059311;28;20060;-77
2023/06/16 12:26:30;;;;;;;6.82;3.80;;;27.20;37.20;;;;;;5082232;28;20080;-78
2023/06/16 12:28:57;;;;;;;4.32;3.80;;;27.20;37.00;;;;;;5085718;28;20033;-77
2023/06/16 12:31:28;;;;;;;5.07;3.53;;;27.30;37.40;;;;;;5064608;28;20442;-78
2023/06/16 12:33:54;;;;;;;3.72;3.28;;;27.40;37.60;;;;;;5082670;28;20088;-78
2023/06/16 12:36:20;;;;;;;3.95;3.58;;;27.20;37.40;;;;;;5091035;28;20028;-77
2023/06/16 12:38:46;;;;;;;6.18;3.90;;;26.80;37.40;;;;;;5079198;28;20069;-78
2023/06/16 12:41:13;;;;;;;7.72;3.58;;;26.40;38.10;;;;;;5078620;28;20079;-78
2023/06/16 12:43:50;;;;;;;7.43;3.33;;;26.60;38.30;;;;;;5066464;28;20098;-79
2023/06/16 12:46:16;;;;;;;4.07;3.30;;;27.00;38.00;;;;;;5056036;28;20560;-78
2023/06/16 12:48:42;;;;;;;6.95;3.78;;;27.40;37.50;;;;;;5064818;28;20087;-77
2023/06/16 12:51:09;;;;;;;4.30;3.35;;;27.50;37.20;;;;;;5064471;28;20017;-78
2023/06/16 12:53:41;;;;;;;3.53;2.88;;;27.90;36.90;;;;;;5054464;28;20531;-78